Aérodrome :
LOGIN :

S'inscrire | Disclaimer

   EN    FR    IT 

 










Légende :    VFR   VFR Marginal   IFR   IFR Intensif   IFR Très Intensif
Visi : 
Plafond : 
>= 8 km
>= 3000ft
5 à 8 km
1000 à 3000 ft
1500m à 5 km
500 à 1000 ft
800 à 1500m
200 à 500 ft
< 800m
< 200 ft
Symboles :   Orages  Brouillard  Fortes neiges  Fortes précipitations  Vent > 20 kt
SIGMETs :   Divers  Orages  Givrage  Turbulence  Onde Orograph.  Cendres Volcan.







- Altitude de l'aérodrome : 2595 ft
- Code IATA : SLM


LESA - Salamanca Matacan

DERNIER METAR :
  • 191000Z 00000KT 6000 BKN045 07/06 Q1020

METARs EXPIRÉS :
  • 190930Z 00000KT 7000 FEW038 BKN045 07/06 Q1020
  • 190900Z 08004KT 6000 BKN045 06/05 Q1020
  • 190830Z VRB01KT 4500 BR SCT014 BKN038 06/05 Q1020
  • 190800Z 02001KT 4000 BR OVC011 06/05 Q1019
  • 190730Z 00000KT 4000 BR OVC010 06/05 Q1019

TAF AMD TAF LESA
Valide du 19 à 07h jusqu'au 20 à 06h UTC


190746Z 1907/2006 VRB05KT CAVOK TX13/1915Z TN00/2006Z
TEMPO 1907/1910 3000 BR BKN006
PROB30
TEMPO 1907/1918 RA BKN012
Pas de NOTAMs connus pour ce terrain.
2 SIGMETs publiés pour la FIR Madrid (LECM) :
 
Turbulence forte
LECM SIGMET 3 VALID 191200/191600 LEVA
LECM MADRID FIR/UIR SEV TURB FCST WI N4413 W00338 - N4029 W00548 - N3904 W00436 - N3853 W00340 - N4318 W00128 - N4413 W00338 FL150/310 STNR NC=
Turbulence forte
LECM SIGMET 2 VALID 190800/191200 LEVA
LECM MADRID FIR/UIR SEV TURB FCST WI N4414 W00342 - N3710 W00740 - N3556 W00727 - N3553 W00620 - N4258 W00119 - N4414 W00342 FL180/300 MOV E 5KT NC=



MET'MAP, la Météo Aéronautique d'un coup d'oeil ! - Copyright ORBIFLY Décembre 2007 - Disclaimer

ORBIFLY MET'MAP TEAM :

Programmation & Développement : Alexandra Zaïnal
Conception & Développement : Baudouin d'Aumeries
Co-Programmation & Développement : Marc-Olivier Méhu
Soutien technique & logistique : Manuel Goepfert

Contact : metmap@orbifly.com




SOURCES & CREDITS :

   NOAA